Time;durP1;ratioP1;P1;durP2;ratioP2;P2;SDS_P1;SDS_P2;PMS_P1;PMS_P2;Temp;Humidity;BMP_temperature;BMP_pressure;BME280_temperature;BME280_humidity;BME280_pressure;Samples;Min_cycle;Max_cycle;Signal;HPM_P1;HPM_P2
2023/03/11 00:01:02;;;;;;;6.17;5.57;;;;;;;12.71;88.91;97683.47;5054766;28;20196;-68
2023/03/11 00:03:29;;;;;;;6.77;6.10;;;;;;;12.61;89.53;97672.72;5055192;28;20210;-68
2023/03/11 00:05:57;;;;;;;7.27;6.77;;;;;;;12.69;89.76;97688.25;5054969;28;20192;-68
2023/03/11 00:08:25;;;;;;;10.63;6.90;;;;;;;12.63;90.11;97683.94;5054841;28;20577;-68
2023/03/11 00:10:54;;;;;;;7.47;6.73;;;;;;;12.70;90.20;97676.53;5055068;28;20196;-68
2023/03/11 00:13:21;;;;;;;7.73;6.80;;;;;;;12.76;89.69;97675.53;5054649;28;20741;-68
2023/03/11 00:15:50;;;;;;;10.10;6.53;;;;;;;12.81;89.67;97664.91;5054955;28;20631;-68
2023/03/11 00:18:18;;;;;;;7.23;6.60;;;;;;;12.84;89.25;97639.59;5054784;28;20280;-68
2023/03/11 00:20:46;;;;;;;8.67;7.60;;;;;;;12.97;89.00;97642.69;5053999;28;20211;-67
2023/03/11 00:23:14;;;;;;;7.67;6.93;;;;;;;13.09;88.99;97642.47;5055857;28;20191;-68
2023/03/11 00:25:44;;;;;;;10.63;6.60;;;;;;;13.14;88.89;97640.66;5063703;28;20675;-68
2023/03/11 00:28:11;;;;;;;8.13;6.93;;;;;;;13.20;88.10;97639.63;5074347;28;20722;-67
2023/03/11 00:30:39;;;;;;;8.67;7.90;;;;;;;13.25;87.94;97631.66;5074975;28;20624;-67
2023/03/11 00:33:08;;;;;;;8.00;7.00;;;;;;;13.27;87.60;97604.75;5069982;28;20238;-67
2023/03/11 00:35:35;;;;;;;8.80;7.17;;;;;;;13.12;88.06;97600.13;5054639;28;20254;-67
2023/03/11 00:38:04;;;;;;;8.63;7.83;;;;;;;13.21;88.07;97598.59;5054305;28;20220;-67
2023/03/11 00:40:33;;;;;;;8.37;7.67;;;;;;;13.17;87.07;97581.50;5054071;28;20248;-67
2023/03/11 00:43:00;;;;;;;10.63;7.70;;;;;;;13.11;87.44;97582.53;5055631;28;20200;-67
2023/03/11 00:45:27;;;;;;;11.30;6.90;;;;;;;13.09;87.99;97597.97;5074275;28;20257;-67
2023/03/11 00:47:55;;;;;;;8.47;7.40;;;;;;;13.08;87.99;97568.91;5074424;28;20207;-67
2023/03/11 00:50:25;;;;;;;10.13;7.20;;;;;;;13.11;87.96;97566.53;5074378;28;20272;-67
2023/03/11 00:52:52;;;;;;;7.83;7.33;;;;;;;13.14;87.50;97558.03;5073794;28;20558;-68
2023/03/11 00:55:22;;;;;;;9.10;8.03;;;;;;;13.16;88.12;97573.75;5054140;28;20192;-67
2023/03/11 00:57:53;;;;;;;8.17;7.33;;;;;;;13.21;87.67;97571.94;5053841;28;20224;-68
2023/03/11 01:00:21;;;;;;;11.73;7.50;;;;;;;13.28;88.11;97572.47;5054925;28;20307;-68
2023/03/11 01:02:48;;;;;;;9.80;7.80;;;;;;;13.33;87.39;97569.84;5054056;28;20192;-67
2023/03/11 01:05:15;;;;;;;8.33;6.93;;;;;;;13.26;86.63;97553.28;5053758;28;20246;-67
2023/03/11 01:07:43;;;;;;;9.47;7.73;;;;;;;13.23;87.06;97561.00;5054000;28;20193;-68
2023/03/11 01:10:11;;;;;;;14.77;7.77;;;;;;;13.22;87.51;97562.84;5054182;28;20200;-67
2023/03/11 01:12:38;;;;;;;8.83;7.70;;;;;;;13.16;86.88;97526.59;5053641;28;20257;-67
2023/03/11 01:15:10;;;;;;;7.87;7.33;;;;;;;13.06;87.58;97510.53;5053389;28;20267;-68
2023/03/11 01:17:37;;;;;;;7.40;6.70;;;;;;;12.98;88.02;97529.69;5053288;28;20695;-67
2023/03/11 01:20:07;;;;;;;7.50;6.90;;;;;;;12.86;88.71;97523.72;5054410;28;20634;-67
2023/03/11 01:22:33;;;;;;;6.83;6.23;;;;;;;12.78;88.98;97515.44;5053263;28;20262;-68
2023/03/11 01:25:02;;;;;;;6.83;6.30;;;;;;;12.87;89.02;97527.19;5053643;28;20192;-67
2023/03/11 01:27:29;;;;;;;7.63;5.93;;;;;;;12.82;89.51;97527.97;5053243;28;20206;-67
2023/03/11 01:29:56;;;;;;;6.33;5.83;;;;;;;12.89;90.26;97520.56;5053288;28;20188;-67
2023/03/11 01:32:23;;;;;;;7.03;6.40;;;;;;;13.00;89.83;97522.25;5053467;28;20254;-67
2023/03/11 01:34:49;;;;;;;7.47;6.73;;;;;;;13.05;89.53;97519.59;5053162;28;20249;-67
2023/03/11 01:37:16;;;;;;;7.87;6.13;;;;;;;13.12;89.05;97530.84;5053118;28;20188;-67
2023/03/11 01:39:43;;;;;;;6.67;6.07;;;;;;;13.05;89.47;97535.59;5053396;28;20193;-67
2023/03/11 01:42:11;;;;;;;6.80;6.20;;;;;;;12.97;89.64;97540.56;5053319;28;20189;-68
2023/03/11 01:44:38;;;;;;;7.30;6.30;;;;;;;12.99;89.79;97531.28;5053347;28;20233;-67
2023/03/11 01:47:37;;;;;;;6.67;6.03;;;;;;;12.92;90.12;97530.69;5053399;28;20193;-67
2023/03/11 01:50:08;;;;;;;7.10;6.50;;;;;;;12.44;92.24;97516.78;5073174;28;20256;-67
2023/03/11 01:52:35;;;;;;;6.93;6.40;;;;;;;12.53;92.63;97525.94;5073264;28;20259;-68
2023/03/11 01:55:02;;;;;;;8.27;6.37;;;;;;;12.52;92.73;97508.31;5072802;28;20272;-68
2023/03/11 01:57:31;;;;;;;7.23;6.53;;;;;;;12.62;92.87;97513.72;5070691;28;20617;-68
2023/03/11 02:00:03;;;;;;;7.80;7.00;;;;;;;12.65;92.15;97518.53;5064830;28;20218;-68
2023/03/11 02:02:35;;;;;;;8.00;7.10;;;;;;;12.68;91.98;97518.84;5071916;28;20193;-67
2023/03/11 02:05:03;;;;;;;6.87;6.30;;;;;;;12.59;92.31;97488.44;5052684;28;20245;-67
2023/03/11 02:07:30;;;;;;;8.10;7.30;;;;;;;12.56;91.98;97472.13;5053073;28;20261;-67
2023/03/11 02:09:57;;;;;;;9.90;7.17;;;;;;;12.55;92.59;97471.34;5052440;28;20637;-68
2023/03/11 02:12:25;;;;;;;8.00;6.70;;;;;;;12.57;92.52;97479.88;5052683;28;20278;-68
2023/03/11 02:14:53;;;;;;;10.03;6.77;;;;;;;12.56;92.60;97480.94;5052700;28;20204;-67
2023/03/11 02:17:21;;;;;;;7.90;7.07;;;;;;;12.60;92.72;97487.34;5052319;28;20568;-68
2023/03/11 02:20:03;;;;;;;7.73;7.17;;;;;;;12.57;92.38;97514.50;5072508;28;20196;-68
2023/03/11 02:22:32;;;;;;;7.17;6.67;;;;;;;12.55;92.70;97535.28;5072700;28;20197;-68
2023/03/11 02:25:04;;;;;;;9.63;7.63;;;;;;;12.41;92.86;97554.59;5072078;28;20663;-68
2023/03/11 02:27:36;;;;;;;18.80;7.93;;;;;;;12.16;94.79;97568.47;5071615;28;20187;-68
2023/03/11 02:30:03;;;;;;;12.43;7.00;;;;;;;12.00;95.48;97569.38;5072509;28;20182;-68
2023/03/11 02:32:31;;;;;;;7.80;7.00;;;;;;;11.80;96.86;97563.09;5072864;28;20211;-68
2023/03/11 02:34:57;;;;;;;7.77;7.10;;;;;;;11.55;97.78;97560.91;5064086;28;20186;-68
2023/03/11 02:37:24;;;;;;;8.70;7.53;;;;;;;11.46;98.96;97572.22;5052586;28;20200;-68
2023/03/11 02:39:54;;;;;;;9.33;7.70;;;;;;;11.32;99.71;97574.47;5051979;28;20209;-67
2023/03/11 02:42:24;;;;;;;9.63;8.27;;;;;;;11.17;100.00;97560.97;5052028;28;20260;-68
2023/03/11 02:44:59;;;;;;;9.37;8.53;;;;;;;11.21;100.00;97564.75;5056724;28;20255;-68
2023/03/11 02:47:26;;;;;;;10.13;8.60;;;;;;;11.16;100.00;97567.34;5072382;28;20227;-68
2023/03/11 02:49:55;;;;;;;9.80;9.00;;;;;;;11.26;100.00;97556.06;5071734;28;20189;-67
2023/03/11 02:52:22;;;;;;;12.43;9.50;;;;;;;11.32;100.00;97558.53;5068436;28;20254;-67
2023/03/11 02:54:48;;;;;;;9.67;8.87;;;;;;;11.21;100.00;97543.50;5051731;28;20197;-68
2023/03/11 02:57:15;;;;;;;9.07;8.33;;;;;;;11.35;100.00;97539.41;5051771;28;20665;-68
2023/03/11 02:59:42;;;;;;;9.30;8.37;;;;;;;11.41;100.00;97522.47;5051416;28;20228;-68
2023/03/11 03:02:10;;;;;;;8.77;8.03;;;;;;;11.58;100.00;97509.91;5051901;28;20662;-68
2023/03/11 03:04:37;;;;;;;9.40;8.50;;;;;;;11.73;99.87;97509.28;5051633;28;20731;-68
2023/03/11 03:07:03;;;;;;;8.93;7.97;;;;;;;11.89;99.01;97497.72;5051826;28;20662;-68
2023/03/11 03:09:30;;;;;;;9.60;7.73;;;;;;;11.84;98.18;97481.72;5051887;28;20194;-68
2023/03/11 03:11:57;;;;;;;10.63;7.60;;;;;;;11.82;98.10;97458.03;5051537;28;20761;-68
2023/03/11 03:14:23;;;;;;;9.17;8.17;;;;;;;11.94;98.12;97461.34;5071255;28;20194;-68
2023/03/11 03:16:50;;;;;;;8.20;7.43;;;;;;;12.03;98.57;97459.00;5071961;28;20198;-67
2023/03/11 03:19:18;;;;;;;9.90;6.83;;;;;;;12.13;97.83;97451.09;5071332;28;20740;-68
2023/03/11 03:21:45;;;;;;;7.70;7.20;;;;;;;12.18;97.81;97457.28;5071571;28;20646;-68
2023/03/11 03:24:12;;;;;;;7.63;7.03;;;;;;;12.27;97.51;97462.91;5053579;28;20199;-68
2023/03/11 03:26:39;;;;;;;8.00;7.20;;;;;;;12.26;97.58;97456.78;5052003;28;20261;-68
2023/03/11 03:29:05;;;;;;;7.53;6.87;;;;;;;12.34;96.80;97458.97;5051241;28;20218;-67
2023/03/11 03:31:32;;;;;;;7.70;7.00;;;;;;;12.37;96.29;97458.44;5051526;28;20726;-67
2023/03/11 03:33:59;;;;;;;7.47;6.97;;;;;;;12.39;96.46;97461.66;5066813;28;20206;-67
2023/03/11 03:36:27;;;;;;;7.87;7.00;;;;;;;12.40;96.13;97457.94;5072062;28;20202;-68
2023/03/11 03:38:55;;;;;;;6.53;6.13;;;;;;;12.40;95.82;97459.78;5071831;28;20231;-68
2023/03/11 03:41:22;;;;;;;8.40;6.90;;;;;;;12.48;95.45;97460.13;5064239;28;20226;-68
2023/03/11 03:43:49;;;;;;;7.63;7.13;;;;;;;12.56;95.64;97464.97;5062972;28;20191;-68
2023/03/11 03:46:15;;;;;;;7.53;6.67;;;;;;;12.52;94.86;97458.53;5051293;28;20260;-68
2023/03/11 03:48:42;;;;;;;7.73;7.13;;;;;;;12.51;94.48;97454.28;5051526;28;20204;-68
2023/03/11 03:51:11;;;;;;;10.77;6.93;;;;;;;12.58;94.37;97476.16;5051538;28;20255;-68
2023/03/11 03:53:40;;;;;;;7.10;6.53;;;;;;;12.49;94.16;97476.91;5051846;28;20202;-68
2023/03/11 03:56:08;;;;;;;6.87;6.03;;;;;;;12.35;94.88;97481.88;5053362;28;20248;-67
2023/03/11 03:58:35;;;;;;;6.70;6.10;;;;;;;12.22;95.30;97484.97;5054929;28;20694;-68
2023/03/11 04:01:03;;;;;;;6.33;5.80;;;;;;;12.17;95.93;97500.09;5055110;28;20194;-67
2023/03/11 04:03:30;;;;;;;7.13;6.47;;;;;;;12.10;96.29;97510.16;5056734;28;20205;-68
2023/03/11 04:06:06;;;;;;;7.50;6.90;;;;;;;12.02;96.99;97527.38;5055203;28;20268;-68
2023/03/11 04:08:32;;;;;;;6.93;6.43;;;;;;;12.04;96.69;97538.56;5055130;28;20192;-67
2023/03/11 04:11:01;;;;;;;7.17;6.43;;;;;;;12.05;96.76;97534.06;5054703;28;20282;-68
2023/03/11 04:13:27;;;;;;;11.23;7.30;;;;;;;12.06;96.62;97544.47;5054693;28;20203;-68
2023/03/11 04:15:54;;;;;;;7.70;7.03;;;;;;;12.05;96.68;97542.81;5054880;28;20248;-67
2023/03/11 04:18:21;;;;;;;8.00;7.20;;;;;;;12.08;96.45;97555.63;5054850;28;20226;-67
2023/03/11 04:20:48;;;;;;;7.93;7.30;;;;;;;12.14;96.90;97561.81;5054874;28;20199;-67
2023/03/11 04:23:15;;;;;;;8.60;7.77;;;;;;;12.17;96.36;97570.09;5069725;28;20198;-67
2023/03/11 04:25:42;;;;;;;8.47;7.87;;;;;;;12.21;96.38;97573.06;5064917;28;20191;-67
2023/03/11 04:28:10;;;;;;;13.37;8.03;;;;;;;12.27;96.18;97580.03;5054077;28;20251;-68
2023/03/11 04:30:36;;;;;;;7.73;7.03;;;;;;;12.30;95.05;97588.31;5054457;28;20190;-68
2023/03/11 04:33:03;;;;;;;7.47;6.87;;;;;;;12.28;95.28;97595.75;5054082;28;20667;-68
2023/03/11 04:35:30;;;;;;;17.27;12.50;;;;;;;12.20;95.09;97606.84;5054269;28;20204;-67
2023/03/11 04:37:57;;;;;;;11.53;10.33;;;;;;;12.27;95.53;97606.63;5054063;28;20188;-68
2023/03/11 04:40:23;;;;;;;8.37;7.57;;;;;;;12.29;95.07;97594.69;5053888;28;20223;-67
2023/03/11 04:42:50;;;;;;;6.80;6.13;;;;;;;12.32;94.65;97594.19;5055429;28;20195;-68
2023/03/11 04:45:20;;;;;;;6.93;6.30;;;;;;;12.34;94.34;97592.09;5053634;28;20196;-68
2023/03/11 04:47:48;;;;;;;7.77;5.73;;;;;;;12.34;94.32;97592.09;5054044;28;20199;-68
2023/03/11 04:50:15;;;;;;;6.30;5.73;;;;;;;12.33;94.14;97585.13;5056234;28;20224;-68
2023/03/11 04:52:42;;;;;;;7.10;5.40;;;;;;;12.23;93.95;97600.22;5051004;28;20198;-67
2023/03/11 04:55:10;;;;;;;5.87;5.37;;;;;;;12.16;93.96;97605.75;5053477;28;20210;-67
2023/03/11 04:57:37;;;;;;;6.93;5.40;;;;;;;12.19;93.39;97604.44;5053690;28;20252;-67
2023/03/11 05:00:04;;;;;;;5.37;4.93;;;;;;;12.09;93.35;97591.03;5054410;28;20218;-68
2023/03/11 05:02:32;;;;;;;5.87;5.37;;;;;;;12.01;93.80;97594.16;5054974;28;20194;-68
2023/03/11 05:04:59;;;;;;;5.53;5.20;;;;;;;12.05;93.33;97597.91;5053368;28;20735;-67
2023/03/11 05:07:26;;;;;;;6.87;5.93;;;;;;;12.16;92.94;97602.28;5053134;28;20654;-67
2023/03/11 05:09:52;;;;;;;5.67;5.17;;;;;;;12.20;92.82;97601.53;5053545;28;20202;-68
2023/03/11 05:12:19;;;;;;;7.17;6.67;;;;;;;12.17;92.54;97601.22;5054379;28;20206;-67
2023/03/11 05:14:46;;;;;;;6.17;5.67;;;;;;;12.27;92.35;97607.44;5052820;28;20670;-67
2023/03/11 05:17:13;;;;;;;7.83;6.63;;;;;;;12.31;92.49;97603.22;5053006;28;20557;-67
2023/03/11 05:19:41;;;;;;;6.30;5.80;;;;;;;12.40;92.04;97596.38;5052712;28;20656;-68
2023/03/11 05:22:08;;;;;;;6.63;6.03;;;;;;;12.47;91.86;97586.34;5054370;28;20195;-67
2023/03/11 05:24:35;;;;;;;6.43;5.83;;;;;;;12.57;91.28;97597.03;5054176;28;20225;-67
2023/03/11 05:27:02;;;;;;;7.17;5.67;;;;;;;12.70;91.11;97603.81;5053125;28;20195;-68
2023/03/11 05:29:30;;;;;;;8.63;5.97;;;;;;;12.81;90.44;97603.63;5053216;28;20203;-68
2023/03/11 05:31:56;;;;;;;6.33;5.93;;;;;;;12.89;90.35;97600.50;5053191;28;20254;-67
2023/03/11 05:34:23;;;;;;;7.63;6.93;;;;;;;12.98;90.21;97608.84;5051841;28;20221;-67
2023/03/11 05:36:51;;;;;;;10.47;6.93;;;;;;;12.98;89.63;97596.31;5051546;28;20188;-67
2023/03/11 05:39:18;;;;;;;6.53;6.03;;;;;;;13.02;89.05;97594.72;5051583;28;20227;-68
2023/03/11 05:41:44;;;;;;;6.67;6.17;;;;;;;13.05;89.13;97599.56;5050472;28;20200;-68
2023/03/11 05:44:14;;;;;;;6.20;5.60;;;;;;;13.15;89.22;97591.59;5051918;28;20249;-68
2023/03/11 05:46:40;;;;;;;6.60;5.70;;;;;;;13.26;88.19;97595.94;5051778;28;20686;-68
2023/03/11 05:49:07;;;;;;;8.97;5.70;;;;;;;13.15;88.02;97591.59;5052523;28;20197;-68
2023/03/11 05:51:34;;;;;;;5.50;5.10;;;;;;;13.28;87.88;97593.03;5051991;28;20196;-68
2023/03/11 05:54:02;;;;;;;7.17;5.83;;;;;;;13.48;87.77;97596.56;5052771;28;20196;-68
2023/03/11 05:56:29;;;;;;;6.83;5.40;;;;;;;13.62;86.44;97589.72;5052729;28;20694;-67
2023/03/11 05:58:57;;;;;;;10.00;4.53;;;;;;;13.69;86.72;97600.13;5052572;28;20278;-68
2023/03/11 06:01:24;;;;;;;6.73;3.57;;;;;;;13.88;86.13;97599.38;5052590;28;20684;-68
2023/03/11 06:03:50;;;;;;;4.53;4.13;;;;;;;13.89;85.55;97582.28;5052906;28;20254;-68
2023/03/11 06:06:17;;;;;;;3.60;3.30;;;;;;;14.05;85.62;97589.28;5052764;28;20197;-68
2023/03/11 06:08:48;;;;;;;4.93;4.33;;;;;;;14.25;84.11;97578.66;5052841;28;20235;-67
2023/03/11 06:11:17;;;;;;;4.70;4.30;;;;;;;14.49;84.02;97578.94;5071449;28;20180;-67
2023/03/11 06:13:44;;;;;;;4.73;4.33;;;;;;;14.73;83.30;97575.47;5072630;28;20198;-67
2023/03/11 06:16:11;;;;;;;5.33;4.60;;;;;;;14.88;81.85;97559.41;5072871;28;20273;-67
2023/03/11 06:18:38;;;;;;;10.80;4.10;;;;;;;15.22;80.53;97563.06;5071619;28;20226;-65
2023/03/11 06:21:07;;;;;;;5.23;4.10;;;;;;;15.47;78.73;97563.00;5054651;28;20250;-65
2023/03/11 06:23:34;;;;;;;6.23;3.73;;;;;;;15.70;77.93;97575.75;5052507;28;20215;-65
2023/03/11 06:26:02;;;;;;;3.27;3.00;;;;;;;15.85;81.21;97562.28;5051913;28;20192;-73
2023/03/11 06:28:31;;;;;;;6.00;3.30;;;;;;;16.32;82.54;97566.25;5052205;28;20201;-72
2023/03/11 06:31:07;;;;;;;3.27;3.00;;;;;;;16.66;77.05;97577.81;5066840;28;20715;-76
2023/03/11 06:33:34;;;;;;;5.07;3.47;;;;;;;16.80;76.94;97570.72;5072250;28;20610;-72
2023/03/11 06:36:02;;;;;;;5.53;3.13;;;;;;;16.88;75.21;97575.47;5072198;28;20188;-77
2023/03/11 06:38:29;;;;;;;5.67;3.20;;;;;;;17.23;79.73;97572.44;5063682;28;20196;-75
2023/03/11 06:41:00;;;;;;;6.83;3.03;;;;;;;17.24;76.89;97572.16;5051627;28;20224;-75
2023/03/11 06:43:27;;;;;;;6.67;3.50;;;;;;;17.54;73.69;97584.44;5046529;28;20637;-78
2023/03/11 06:45:55;;;;;;;4.00;3.60;;;;;;;17.77;75.17;97578.25;5051822;28;20736;-67
2023/03/11 06:48:21;;;;;;;3.93;3.43;;;;;;;18.16;75.14;97584.97;5051880;28;20188;-68
2023/03/11 06:50:54;;;;;;;3.97;3.17;;;;;;;18.45;71.65;97584.81;5051764;28;20200;-69
2023/03/11 06:53:21;;;;;;;4.37;3.23;;;;;;;18.35;68.42;97585.00;5052241;28;20189;-67
2023/03/11 06:55:58;;;;;;;5.27;3.37;;;;;;;18.25;65.09;97595.88;5052048;28;20192;-68
2023/03/11 06:58:25;;;;;;;8.97;3.30;;;;;;;18.02;66.32;97594.03;5038542;28;20226;-67
2023/03/11 07:00:51;;;;;;;4.90;2.77;;;;;;;17.59;65.23;97581.69;5051965;28;20265;-68
2023/03/11 07:03:19;;;;;;;2.13;2.03;;;;;;;17.39;66.99;97581.94;5051692;28;20732;-68
2023/03/11 07:05:49;;;;;;;2.40;2.20;;;;;;;17.41;67.41;97580.59;5051772;28;20200;-68
2023/03/11 07:08:16;;;;;;;13.27;2.73;;;;;;;17.40;67.49;97580.84;5061960;28;20231;-67
2023/03/11 07:10:43;;;;;;;5.63;2.17;;;;;;;17.36;66.62;97585.97;5060305;28;20200;-67
2023/03/11 07:13:10;;;;;;;5.10;3.07;;;;;;;17.25;65.98;97589.84;5071832;28;20195;-66
2023/03/11 07:15:36;;;;;;;3.67;2.27;;;;;;;17.19;66.45;97574.09;5072049;28;20197;-66
2023/03/11 07:18:03;;;;;;;3.60;2.00;;;;;;;17.21;66.64;97574.59;5070658;28;20205;-65
2023/03/11 07:20:31;;;;;;;9.10;1.80;;;;;;;17.55;65.43;97584.16;5072020;28;20273;-66
2023/03/11 07:22:58;;;;;;;6.50;2.50;;;;;;;17.98;64.62;97574.22;5071423;28;20732;-66
2023/03/11 07:25:24;;;;;;;1.90;1.73;;;;;;;18.51;62.13;97589.06;5072102;28;20275;-67
2023/03/11 07:27:51;;;;;;;2.97;1.50;;;;;;;18.87;59.15;97588.16;5059934;28;20242;-68
2023/03/11 07:30:18;;;;;;;3.10;1.37;;;;;;;19.23;58.37;97580.25;5053586;28;20204;-67
2023/03/11 07:32:45;;;;;;;2.10;1.60;;;;;;;19.62;57.05;97584.09;5055566;28;20193;-68
2023/03/11 07:35:11;;;;;;;3.03;1.50;;;;;;;19.91;56.84;97581.06;5054087;28;20638;-69
2023/03/11 07:37:39;;;;;;;2.13;1.23;;;;;;;20.01;54.58;97583.56;5055568;28;20221;-67
2023/03/11 07:40:08;;;;;;;1.33;1.23;;;;;;;20.02;53.33;97594.03;5055251;28;20224;-66
2023/03/11 07:42:34;;;;;;;5.37;1.33;;;;;;;20.01;53.49;97580.88;5054952;28;20270;-67
2023/03/11 07:45:01;;;;;;;44.70;2.80;;;;;;;20.05;52.70;97576.47;5050263;28;20325;-67
2023/03/11 07:47:28;;;;;;;1.10;1.10;;;;;;;19.93;52.32;97579.66;5044691;28;20243;-67
2023/03/11 07:49:54;;;;;;;1.83;1.00;;;;;;;19.92;52.96;97571.88;5048827;28;20193;-71
2023/03/11 07:52:21;;;;;;;2.27;1.10;;;;;;;19.85;52.62;97579.59;5034614;28;20753;-70
2023/03/11 07:54:49;;;;;;;1.30;1.20;;;;;;;19.89;53.93;97588.69;5048997;28;20614;-67
2023/03/11 07:57:16;;;;;;;3.10;1.40;;;;;;;20.03;52.80;97579.47;5054829;28;20189;-68
2023/03/11 07:59:43;;;;;;;3.37;1.43;;;;;;;20.25;53.68;97570.63;5054502;28;20285;-68
2023/03/11 08:02:10;;;;;;;2.03;1.40;;;;;;;20.40;52.08;97564.91;5054733;28;20692;-67
2023/03/11 08:04:37;;;;;;;1.63;1.10;;;;;;;20.43;51.78;97562.38;5054560;28;20326;-67
2023/03/11 08:07:05;;;;;;;2.07;1.03;;;;;;;20.48;51.56;97564.16;5051400;28;20192;-67
2023/03/11 08:09:32;;;;;;;2.43;1.30;;;;;;;20.67;53.99;97567.50;5054600;28;20278;-65
2023/03/11 08:12:00;;;;;;;4.20;1.00;;;;;;;20.95;53.62;97574.34;5054344;28;20197;-65
2023/03/11 08:14:27;;;;;;;3.67;1.30;;;;;;;21.35;53.01;97559.00;5054215;28;20254;-69
2023/03/11 08:16:53;;;;;;;11.27;1.50;;;;;;;21.69;49.10;97568.00;5054694;28;20192;-69
2023/03/11 08:19:20;;;;;;;2.20;0.90;;;;;;;21.31;48.05;97561.50;5054256;28;20201;-74
2023/03/11 08:21:47;;;;;;;0.80;0.80;;;;;;;20.74;49.14;97540.06;5051475;28;20204;-71
2023/03/11 08:24:14;;;;;;;2.60;1.10;;;;;;;20.74;49.94;97550.88;5053722;28;20189;-70
2023/03/11 08:26:41;;;;;;;5.00;1.10;;;;;;;20.88;50.51;97557.78;5053751;28;20547;-71
2023/03/11 08:29:10;;;;;;;3.87;1.10;;;;;;;20.77;49.03;97559.13;5053654;28;20197;-70
2023/03/11 08:31:37;;;;;;;1.47;1.10;;;;;;;20.29;50.49;97550.03;5053760;28;20201;-71
2023/03/11 08:34:06;;;;;;;1.27;1.17;;;;;;;20.31;50.06;97554.03;5053404;28;20189;-70
2023/03/11 08:36:33;;;;;;;2.70;1.30;;;;;;;20.27;49.98;97563.06;5051217;28;20201;-71
2023/03/11 08:39:00;;;;;;;3.70;1.00;;;;;;;20.01;51.00;97553.91;5053621;28;20254;-68
2023/03/11 08:41:27;;;;;;;2.57;1.10;;;;;;;20.08;50.59;97541.59;5053455;28;20216;-69
2023/03/11 08:43:54;;;;;;;1.27;1.13;;;;;;;20.22;52.83;97541.59;5053729;28;20192;-68
2023/03/11 08:46:25;;;;;;;9.13;1.20;;;;;;;20.42;54.47;97522.25;5074109;28;20196;-68
2023/03/11 08:48:52;;;;;;;2.73;1.10;;;;;;;20.92;51.98;97547.97;5069689;28;20185;-68
2023/03/11 08:51:19;;;;;;;3.43;1.47;;;;;;;21.31;50.87;97542.59;5053704;28;20555;-68
2023/03/11 08:53:47;;;;;;;4.80;1.10;;;;;;;21.31;48.94;97558.81;5055310;28;20200;-67
2023/03/11 08:56:14;;;;;;;9.70;1.53;;;;;;;21.34;47.77;97557.38;5073922;28;20669;-69
2023/03/11 08:58:40;;;;;;;13.07;1.90;;;;;;;21.50;51.63;97550.44;5063308;28;20228;-71
2023/03/11 09:01:09;;;;;;;2.87;2.20;;;;;;;21.40;50.64;97543.41;5046891;28;20225;-72
2023/03/11 09:03:37;;;;;;;6.10;1.00;;;;;;;21.01;48.38;97556.13;5041723;28;20306;-72
2023/03/11 09:06:06;;;;;;;7.40;1.10;;;;;;;20.53;47.59;97545.97;5053981;28;20622;-68
2023/03/11 09:08:32;;;;;;;1.77;0.90;;;;;;;20.51;48.63;97536.59;5056435;28;20200;-69
2023/03/11 09:10:59;;;;;;;0.83;0.83;;;;;;;20.59;48.03;97542.03;5074002;28;20219;-71
2023/03/11 09:13:26;;;;;;;1.33;0.73;;;;;;;20.47;48.38;97524.81;5073454;28;20728;-71
2023/03/11 09:15:53;;;;;;;5.03;1.13;;;;;;;20.54;48.16;97530.56;5073827;28;20257;-70
2023/03/11 09:18:20;;;;;;;7.40;1.10;;;;;;;20.58;48.01;97530.75;5072058;28;20551;-70
2023/03/11 09:20:48;;;;;;;0.67;0.67;;;;;;;20.58;47.66;97523.44;5053852;28;20220;-67
2023/03/11 09:23:18;;;;;;;2.20;0.90;;;;;;;20.71;50.90;97517.19;5053336;28;20196;-67
2023/03/11 09:25:45;;;;;;;2.53;0.90;;;;;;;20.90;47.44;97517.75;5053406;28;20250;-68
2023/03/11 09:28:15;;;;;;;1.47;1.00;;;;;;;20.47;47.93;97508.63;5052634;28;20266;-68
2023/03/11 09:30:42;;;;;;;2.27;1.10;;;;;;;20.49;47.93;97493.72;5073209;28;20188;-69
2023/03/11 09:33:09;;;;;;;5.33;0.80;;;;;;;20.29;49.85;97488.03;5073355;28;20656;-67
2023/03/11 09:35:38;;;;;;;4.20;1.13;;;;;;;20.31;47.87;97499.31;5073579;28;20191;-67
2023/03/11 09:38:09;;;;;;;1.70;0.93;;;;;;;20.32;48.20;97495.50;5073956;28;20226;-68
2023/03/11 09:40:57;;;;;;;3.10;0.97;;;;;;;20.38;47.43;97488.91;5054143;28;20258;-68
2023/03/11 09:44:01;;;;;;;1.00;1.00;;;;;;;19.78;48.68;97487.59;5052319;28;20270;-67
2023/03/11 09:46:50;;;;;;;1.10;1.00;;;;;;;20.04;48.27;97491.31;4989935;28;20214;-68
2023/03/11 09:49:25;;;;;;;5.17;2.10;;;;;;;20.11;48.23;97489.03;5045327;28;20609;-66
2023/03/11 09:52:01;;;;;;;2.90;1.23;;;;;;;20.77;47.73;97485.47;5073353;28;20196;-65
2023/03/11 09:54:37;;;;;;;1.10;0.93;;;;;;;21.19;45.59;97490.31;5072056;28;20180;-65
2023/03/11 09:57:06;;;;;;;13.40;1.23;;;;;;;21.39;43.15;97487.03;5069627;28;20177;-66
2023/03/11 09:59:35;;;;;;;0.93;0.70;;;;;;;21.26;42.64;97494.13;5053017;28;20228;-67
2023/03/11 10:02:02;;;;;;;11.03;1.93;;;;;;;21.10;42.38;97494.88;5052841;28;20221;-67
2023/03/11 10:04:36;;;;;;;6.30;1.00;;;;;;;21.12;43.18;97482.66;5052799;28;20288;-67
2023/03/11 10:07:12;;;;;;;1.40;1.03;;;;;;;21.25;42.33;97486.34;5054624;28;20638;-67
2023/03/11 10:09:47;;;;;;;2.60;0.80;;;;;;;21.29;42.01;97477.31;5071574;28;20244;-68
2023/03/11 10:12:28;;;;;;;17.70;1.57;;;;;;;21.14;42.08;97474.25;5072663;28;20249;-67
2023/03/11 10:15:09;;;;;;;1.93;0.90;;;;;;;21.44;41.61;97479.56;5067798;28;20188;-67
2023/03/11 10:17:49;;;;;;;1.10;0.90;;;;;;;21.82;40.03;97483.31;5060849;28;20195;-68
2023/03/11 10:20:22;;;;;;;5.90;1.33;;;;;;;21.90;38.90;97481.72;5072620;28;20208;-67
2023/03/11 10:23:02;;;;;;;3.90;1.00;;;;;;;21.99;39.83;97475.22;5072582;28;20195;-68
2023/03/11 10:25:37;;;;;;;3.33;0.70;;;;;;;22.12;38.42;97474.25;5062505;28;20188;-67
2023/03/11 10:28:07;;;;;;;2.33;0.63;;;;;;;22.30;38.13;97459.59;5052259;28;20183;-66
2023/03/11 10:30:39;;;;;;;1.97;0.70;;;;;;;22.64;38.23;97467.69;5052007;28;20203;-67
2023/03/11 10:33:13;;;;;;;4.77;0.97;;;;;;;22.77;37.75;97446.94;5052783;28;20569;-66
2023/03/11 10:35:43;;;;;;;1.40;0.77;;;;;;;23.21;37.26;97458.09;5062622;28;20188;-68
2023/03/11 10:38:15;;;;;;;20.77;2.10;;;;;;;23.37;36.79;97461.84;5072132;28;20242;-67
2023/03/11 10:40:45;;;;;;;1.80;0.73;;;;;;;23.23;36.28;97458.56;5071875;28;20212;-66
2023/03/11 10:43:14;;;;;;;1.83;0.90;;;;;;;23.09;36.82;97457.97;5071778;28;20262;-64
2023/03/11 10:45:43;;;;;;;1.80;0.80;;;;;;;22.94;38.05;97455.78;5061692;28;20196;-67
2023/03/11 10:48:11;;;;;;;3.43;0.80;;;;;;;22.85;37.34;97460.47;5067520;28;20625;-66
2023/03/11 10:50:46;;;;;;;3.13;0.80;;;;;;;22.90;36.29;97457.56;5071702;28;20274;-68
2023/03/11 10:53:16;;;;;;;1.03;1.00;;;;;;;22.87;35.92;97452.00;5072031;28;20240;-67
2023/03/11 10:55:48;;;;;;;1.30;1.20;;;;;;;22.81;36.57;97442.47;5061755;28;20690;-66
2023/03/11 10:58:16;;;;;;;19.17;2.37;;;;;;;22.98;36.54;97453.22;5051930;28;20235;-67
2023/03/11 11:00:43;;;;;;;3.10;2.40;;;;;;;23.12;35.85;97451.88;5051565;28;20756;-66
2023/03/11 11:03:21;;;;;;;7.20;1.47;;;;;;;22.89;36.92;97439.75;5051799;28;20670;-65
2023/03/11 11:05:58;;;;;;;3.93;1.73;;;;;;;22.57;34.89;97437.63;5051161;28;20565;-66
2023/03/11 11:08:25;;;;;;;5.80;2.60;;;;;;;22.37;36.60;97432.84;5052137;28;20192;-66
2023/03/11 11:10:55;;;;;;;4.50;1.87;;;;;;;22.19;36.78;97434.00;5051829;28;20283;-70
2023/03/11 11:13:23;;;;;;;3.03;1.17;;;;;;;22.00;36.81;97433.53;5051967;28;20201;-83
2023/03/11 11:15:59;;;;;;;11.53;6.70;;;;;;;22.12;44.51;97412.06;5051337;28;20552;-80
2023/03/11 11:18:29;;;;;;;5.80;1.50;;;;;;;21.88;36.35;97419.88;5052099;28;20662;-83
2023/03/11 11:21:02;;;;;;;17.00;7.47;;;;;;;22.25;44.14;97419.19;5051346;28;20213;-81
2023/03/11 11:23:42;;;;;;;7.93;4.10;;;;;;;22.91;40.21;97415.81;5054168;28;20185;-85
2023/03/11 11:26:21;;;;;;;3.13;2.83;;;;;;;22.97;37.51;97408.31;5071500;28;20180;-84
2023/03/11 11:29:06;;;;;;;6.33;4.77;;;;;;;23.31;40.73;97413.56;5071570;28;20184;-83
2023/03/11 11:31:33;;;;;;;3.93;3.63;;;;;;;23.28;40.04;97417.72;5072519;28;20196;-83
2023/03/11 11:33:59;;;;;;;7.53;4.10;;;;;;;23.29;38.14;97408.50;5064717;28;20193;-81
2023/03/11 11:36:30;;;;;;;1.83;1.73;;;;;;;23.35;34.16;97409.88;5050983;28;20197;-81
2023/03/11 11:39:01;;;;;;;4.33;1.50;;;;;;;23.14;33.48;97413.63;5051483;28;20185;-70